createdAt,value
2023-03-06T00:01:10.523Z,9.80
2023-03-06T00:03:49.731Z,7.77
2023-03-06T00:06:18.632Z,7.40
2023-03-06T00:08:49.164Z,7.60
2023-03-06T00:11:15.917Z,6.70
2023-03-06T00:16:32.196Z,7.47
2023-03-06T00:19:02.461Z,6.97
2023-03-06T00:21:30.397Z,7.23
2023-03-06T00:23:57.034Z,6.23
2023-03-06T00:26:30.113Z,8.07
2023-03-06T00:28:57.536Z,5.83
2023-03-06T00:31:30.305Z,5.60
2023-03-06T00:34:00.604Z,5.83
2023-03-06T00:36:29.998Z,5.50
2023-03-06T00:38:57.965Z,5.57
2023-03-06T00:41:29.702Z,5.80
2023-03-06T00:43:57.762Z,4.87
2023-03-06T00:46:26.949Z,5.00
2023-03-06T00:48:56.120Z,5.73
2023-03-06T00:51:27.633Z,5.63
2023-03-06T00:53:56.902Z,5.60
2023-03-06T00:56:26.734Z,4.67
2023-03-06T00:58:58.542Z,6.80
2023-03-06T01:01:29.393Z,4.10
2023-03-06T01:03:56.033Z,6.00
2023-03-06T01:06:22.665Z,5.03
2023-03-06T01:08:52.721Z,4.87
2023-03-06T01:11:19.358Z,5.87
2023-03-06T01:13:48.982Z,4.13
2023-03-06T01:16:19.993Z,5.27
2023-03-06T01:18:50.497Z,5.27
2023-03-06T01:21:17.497Z,4.07
2023-03-06T01:23:44.281Z,3.73
2023-03-06T01:26:11.017Z,5.70
2023-03-06T01:28:41.540Z,4.33
2023-03-06T01:31:11.800Z,3.37
2023-03-06T01:33:39.146Z,4.37
2023-03-06T01:36:14.794Z,4.00
2023-03-06T01:38:46.354Z,6.17
2023-03-06T01:41:15.962Z,5.10
2023-03-06T01:43:47.272Z,5.03
2023-03-06T01:46:29.622Z,3.97
2023-03-06T01:49:28.161Z,3.40
2023-03-06T01:52:02.826Z,4.27
2023-03-06T01:54:35.266Z,4.00
2023-03-06T01:57:06.014Z,4.07
2023-03-06T01:59:38.092Z,4.97
2023-03-06T02:02:09.026Z,3.97
2023-03-06T02:04:39.803Z,3.87
2023-03-06T02:07:10.711Z,4.13
2023-03-06T02:09:38.298Z,4.83
2023-03-06T02:12:10.315Z,4.43
2023-03-06T02:14:41.586Z,4.00
2023-03-06T02:17:12.221Z,4.83
2023-03-06T02:20:12.208Z,4.03
2023-03-06T02:22:59.784Z,5.93
2023-03-06T02:25:45.680Z,5.37
2023-03-06T02:28:20.406Z,5.73
2023-03-06T02:30:49.525Z,5.37
2023-03-06T02:33:19.670Z,6.33
2023-03-06T02:35:53.458Z,6.80
2023-03-06T02:38:25.344Z,5.63
2023-03-06T02:40:55.771Z,4.53
2023-03-06T02:43:27.747Z,5.87
2023-03-06T02:46:01.837Z,5.23
2023-03-06T02:48:28.524Z,6.30
2023-03-06T02:50:55.607Z,5.97
2023-03-06T02:53:22.472Z,4.43
2023-03-06T02:55:49.620Z,6.97
2023-03-06T02:58:19.685Z,5.30
2023-03-06T03:00:48.164Z,6.93
2023-03-06T03:03:16.408Z,5.47
2023-03-06T03:05:46.269Z,6.50
2023-03-06T03:08:21.509Z,5.50
2023-03-06T03:10:51.462Z,6.93
2023-03-06T03:13:19.634Z,4.70
2023-03-06T03:16:18.537Z,6.33
2023-03-06T03:18:47.797Z,5.67
2023-03-06T03:21:17.593Z,5.60
2023-03-06T03:23:49.282Z,5.17
2023-03-06T03:26:20.952Z,5.23
2023-03-06T03:28:54.563Z,6.57
2023-03-06T03:31:21.961Z,6.17
2023-03-06T03:33:51.060Z,6.57
2023-03-06T03:36:19.144Z,6.73
2023-03-06T03:38:50.399Z,6.53
2023-03-06T03:41:22.338Z,7.83
2023-03-06T03:43:52.283Z,8.40
2023-03-06T03:46:21.583Z,8.70
2023-03-06T03:48:49.561Z,7.20
2023-03-06T03:51:17.908Z,6.50
2023-03-06T03:54:00.719Z,6.63
2023-03-06T03:56:35.381Z,6.77
2023-03-06T03:59:10.621Z,6.73
2023-03-06T04:01:48.586Z,9.63
2023-03-06T04:04:15.692Z,7.57
2023-03-06T04:06:48.587Z,9.00
2023-03-06T04:09:17.472Z,7.23
2023-03-06T04:11:44.851Z,7.00
2023-03-06T04:14:11.631Z,7.27
2023-03-06T04:16:39.033Z,6.80
2023-03-06T04:19:20.222Z,6.37
2023-03-06T04:21:52.483Z,24.20
2023-03-06T04:24:21.448Z,26.57
2023-03-06T04:26:48.485Z,16.47
2023-03-06T04:29:15.334Z,26.73
2023-03-06T04:31:48.481Z,22.77
2023-03-06T04:34:18.305Z,40.77
2023-03-06T04:36:47.935Z,58.87
2023-03-06T04:39:19.697Z,31.93
2023-03-06T04:41:50.073Z,19.33
2023-03-06T04:44:28.564Z,9.87
2023-03-06T04:49:36.457Z,7.63
2023-03-06T04:52:03.670Z,7.80
2023-03-06T04:54:33.118Z,7.43
2023-03-06T04:57:00.586Z,6.70
2023-03-06T04:59:27.192Z,7.60
2023-03-06T05:02:00.749Z,5.63
2023-03-06T05:04:29.926Z,7.67
2023-03-06T05:06:59.918Z,7.37
2023-03-06T05:09:29.761Z,11.30
2023-03-06T05:12:00.136Z,14.80
2023-03-06T05:14:30.087Z,11.67
2023-03-06T05:17:01.392Z,7.63
2023-03-06T05:19:28.041Z,8.33
2023-03-06T05:21:54.753Z,7.47
2023-03-06T05:24:25.870Z,7.70
2023-03-06T05:26:55.696Z,6.77
2023-03-06T05:29:24.708Z,7.60
2023-03-06T05:31:52.694Z,7.47
2023-03-06T05:34:22.481Z,7.93
2023-03-06T05:36:49.111Z,10.20
2023-03-06T05:39:15.762Z,7.27
2023-03-06T05:41:45.291Z,7.00
2023-03-06T05:44:12.896Z,8.10
2023-03-06T05:46:44.979Z,7.63
2023-03-06T05:49:11.744Z,9.23
2023-03-06T05:51:38.330Z,8.10
2023-03-06T05:54:05.046Z,7.67
2023-03-06T05:56:33.328Z,7.60
2023-03-06T05:59:02.256Z,8.70
2023-03-06T06:01:29.870Z,9.63
2023-03-06T06:03:56.724Z,7.67
2023-03-06T06:06:23.362Z,8.90
2023-03-06T06:08:52.405Z,7.63
2023-03-06T06:11:22.250Z,11.03
2023-03-06T06:13:50.798Z,8.80
2023-03-06T06:16:21.621Z,10.13
2023-03-06T06:18:51.419Z,9.83
2023-03-06T06:21:19.357Z,10.30
2023-03-06T06:23:46.302Z,10.93
2023-03-06T06:26:15.612Z,11.80
2023-03-06T06:28:46.478Z,10.30
2023-03-06T06:31:13.557Z,10.20
2023-03-06T06:33:42.049Z,9.67
2023-03-06T06:36:16.769Z,10.03
2023-03-06T06:38:44.142Z,11.70
2023-03-06T06:44:01.496Z,10.87
2023-03-06T06:49:23.057Z,11.03
2023-03-06T06:51:50.789Z,10.80
2023-03-06T06:54:18.748Z,13.37
2023-03-06T06:56:45.727Z,8.93
2023-03-06T06:59:17.393Z,12.50
2023-03-06T07:01:44.610Z,11.10
2023-03-06T07:04:14.804Z,9.20
2023-03-06T07:06:51.178Z,9.70
2023-03-06T07:09:21.297Z,10.27
2023-03-06T07:11:54.489Z,9.13
2023-03-06T07:14:23.396Z,9.67
2023-03-06T07:16:54.501Z,9.33
2023-03-06T07:19:26.622Z,11.67
2023-03-06T07:21:55.847Z,10.03
2023-03-06T07:24:24.652Z,9.70
2023-03-06T07:26:54.396Z,11.10
2023-03-06T07:29:23.656Z,11.43
2023-03-06T07:31:50.680Z,8.73
2023-03-06T07:34:18.426Z,9.20
2023-03-06T07:36:47.970Z,8.77
2023-03-06T07:39:18.108Z,9.77
2023-03-06T07:41:47.509Z,9.43
2023-03-06T07:44:21.385Z,10.77
2023-03-06T07:46:48.703Z,10.37
2023-03-06T07:49:17.025Z,8.13
2023-03-06T07:51:43.941Z,9.77
2023-03-06T07:54:11.481Z,8.10
2023-03-06T07:56:38.226Z,9.83
2023-03-06T07:59:08.869Z,9.30
2023-03-06T08:01:36.520Z,9.80
2023-03-06T08:04:07.461Z,9.63
2023-03-06T08:06:37.477Z,11.20
2023-03-06T08:09:08.866Z,8.97
2023-03-06T08:11:38.244Z,9.50
2023-03-06T08:14:07.454Z,11.00
2023-03-06T08:16:35.643Z,9.53
2023-03-06T08:19:07.852Z,10.93
2023-03-06T08:21:36.371Z,14.20
2023-03-06T08:24:05.790Z,15.17
2023-03-06T08:26:40.212Z,15.63
2023-03-06T08:29:10.824Z,13.57
2023-03-06T08:31:41.397Z,9.87
2023-03-06T08:34:16.275Z,15.07
2023-03-06T08:36:45.384Z,11.03
2023-03-06T08:39:14.303Z,10.87
2023-03-06T08:41:44.586Z,12.70
2023-03-06T08:44:11.736Z,12.93
2023-03-06T08:46:44.915Z,9.93
2023-03-06T08:49:17.529Z,12.40
2023-03-06T08:51:44.797Z,11.37
2023-03-06T08:54:16.416Z,12.87
2023-03-06T08:56:45.929Z,28.60
2023-03-06T08:59:16.772Z,19.83
2023-03-06T09:01:45.200Z,14.73
2023-03-06T09:04:11.958Z,13.87
2023-03-06T09:06:45.208Z,15.30
2023-03-06T09:09:14.547Z,11.00
2023-03-06T09:11:44.259Z,10.67
2023-03-06T09:14:12.172Z,15.27
2023-03-06T09:16:44.501Z,11.27
2023-03-06T09:19:13.879Z,11.00
2023-03-06T09:21:41.544Z,11.03
2023-03-06T09:24:11.397Z,11.03
2023-03-06T09:26:52.251Z,10.57
2023-03-06T09:29:21.245Z,9.87
2023-03-06T09:31:52.739Z,10.67
2023-03-06T09:34:24.765Z,12.00
2023-03-06T09:36:57.203Z,10.53
2023-03-06T09:39:29.409Z,10.23
2023-03-06T09:42:00.890Z,10.97
2023-03-06T09:44:31.777Z,13.97
2023-03-06T09:47:35.692Z,11.40
2023-03-06T09:50:20.320Z,10.20
2023-03-06T09:53:08.852Z,10.97
2023-03-06T09:55:38.149Z,9.90
2023-03-06T09:58:21.248Z,10.73
2023-03-06T10:01:03.033Z,9.47
2023-03-06T10:03:56.441Z,10.70
2023-03-06T10:06:48.395Z,9.83
2023-03-06T10:09:28.324Z,9.73
2023-03-06T10:12:00.944Z,12.03
2023-03-06T10:14:40.959Z,9.17
2023-03-06T10:17:23.485Z,10.60
2023-03-06T10:19:53.339Z,10.50
2023-03-06T10:22:37.115Z,9.60
2023-03-06T10:25:03.728Z,12.07
2023-03-06T10:27:55.593Z,9.37
2023-03-06T10:30:46.897Z,8.87
2023-03-06T10:33:56.060Z,9.43
2023-03-06T10:36:27.243Z,11.77
2023-03-06T10:38:56.141Z,9.00
2023-03-06T10:41:29.320Z,11.33
2023-03-06T10:44:07.469Z,13.07
2023-03-06T10:46:45.321Z,10.20
2023-03-06T10:49:17.317Z,12.27
2023-03-06T10:52:02.340Z,11.80
2023-03-06T10:54:32.816Z,12.07
2023-03-06T10:57:19.723Z,11.40
2023-03-06T10:59:57.874Z,9.27
2023-03-06T11:02:34.013Z,12.13
2023-03-06T11:05:04.768Z,10.47
2023-03-06T11:07:33.187Z,10.87
2023-03-06T11:09:59.946Z,11.10
2023-03-06T11:12:34.680Z,10.53
2023-03-06T11:15:18.519Z,10.93
2023-03-06T11:17:53.683Z,11.63
2023-03-06T11:20:22.145Z,10.23
2023-03-06T11:22:55.203Z,11.67
2023-03-06T11:25:56.856Z,11.17
2023-03-06T11:28:44.016Z,10.53
2023-03-06T11:31:18.238Z,12.00
2023-03-06T11:34:21.272Z,10.07
2023-03-06T11:37:18.991Z,12.57
2023-03-06T11:40:24.870Z,11.33
2023-03-06T11:43:19.969Z,11.67
2023-03-06T11:45:54.058Z,13.03
2023-03-06T11:48:38.171Z,10.03
2023-03-06T11:51:19.296Z,12.37
2023-03-06T11:53:46.057Z,10.73
2023-03-06T11:56:16.425Z,12.77
2023-03-06T11:59:12.717Z,11.53
2023-03-06T12:02:11.731Z,10.47
2023-03-06T12:04:52.966Z,12.30
2023-03-06T12:07:24.086Z,11.37
2023-03-06T12:09:53.823Z,10.77
2023-03-06T12:12:32.538Z,11.87
2023-03-06T12:15:34.679Z,9.47
2023-03-06T12:18:39.771Z,11.20
2023-03-06T12:21:38.094Z,10.90
2023-03-06T12:24:26.592Z,10.73
2023-03-06T12:27:21.693Z,11.83
2023-03-06T12:30:05.759Z,9.70
2023-03-06T12:32:41.621Z,12.53
2023-03-06T12:35:31.929Z,10.83
2023-03-06T12:38:21.742Z,9.80
2023-03-06T12:41:08.888Z,14.00
2023-03-06T12:44:08.173Z,12.23
2023-03-06T12:46:42.548Z,11.37
2023-03-06T12:49:23.014Z,10.73
2023-03-06T12:51:58.464Z,11.70
2023-03-06T12:54:28.436Z,13.80
2023-03-06T12:56:57.092Z,10.87
2023-03-06T12:59:47.427Z,13.33
2023-03-06T13:02:14.284Z,19.30
2023-03-06T13:05:00.731Z,12.53
2023-03-06T13:07:36.404Z,12.30
2023-03-06T13:10:35.514Z,10.50
2023-03-06T13:13:34.273Z,13.13
2023-03-06T13:16:13.596Z,12.33
2023-03-06T13:18:43.230Z,11.70
2023-03-06T13:21:45.213Z,12.30
2023-03-06T13:24:22.790Z,13.33
2023-03-06T13:27:02.811Z,12.50
2023-03-06T13:29:36.160Z,10.80
2023-03-06T13:32:02.939Z,13.10
2023-03-06T13:34:51.967Z,12.20
2023-03-06T13:37:27.555Z,14.00
2023-03-06T13:40:00.448Z,9.70
2023-03-06T13:42:28.819Z,10.97
2023-03-06T13:44:56.505Z,10.20
2023-03-06T13:47:50.539Z,10.87
2023-03-06T13:50:37.701Z,13.83
2023-03-06T13:53:29.450Z,12.17
2023-03-06T13:56:06.442Z,10.93
2023-03-06T13:58:44.471Z,11.93
2023-03-06T14:01:32.528Z,11.60
2023-03-06T14:04:27.229Z,13.97
2023-03-06T14:07:12.003Z,12.23
2023-03-06T14:09:42.904Z,13.30
2023-03-06T14:12:40.926Z,11.87
2023-03-06T14:15:16.574Z,11.33
2023-03-06T14:17:54.406Z,13.80
2023-03-06T14:20:21.882Z,15.07
2023-03-06T14:22:48.486Z,10.97
2023-03-06T14:25:28.234Z,12.50
2023-03-06T14:27:56.462Z,12.27
2023-03-06T14:30:27.100Z,10.67
2023-03-06T14:32:55.042Z,12.93
2023-03-06T14:35:35.538Z,11.70
2023-03-06T14:38:08.743Z,11.50
2023-03-06T14:40:41.078Z,11.20
2023-03-06T14:43:10.758Z,12.27
2023-03-06T14:45:38.765Z,13.53
2023-03-06T14:48:13.034Z,11.27
2023-03-06T14:50:43.679Z,12.90
2023-03-06T14:53:28.821Z,11.40
2023-03-06T14:56:01.411Z,12.10
2023-03-06T14:58:33.894Z,13.03
2023-03-06T15:01:09.449Z,14.50
2023-03-06T15:03:51.069Z,14.50
2023-03-06T15:06:23.526Z,12.67
2023-03-06T15:09:08.042Z,12.30
2023-03-06T15:12:04.108Z,12.00
2023-03-06T15:14:42.801Z,13.80
2023-03-06T15:17:18.540Z,12.00
2023-03-06T15:19:49.553Z,11.60
2023-03-06T15:22:34.752Z,16.63
2023-03-06T15:25:31.068Z,14.53
2023-03-06T15:28:01.932Z,12.47
2023-03-06T15:30:38.825Z,13.00
2023-03-06T15:33:24.829Z,14.57
2023-03-06T15:35:57.246Z,14.00
2023-03-06T15:38:32.075Z,14.23
2023-03-06T15:41:02.660Z,14.40
2023-03-06T15:43:39.177Z,15.30
2023-03-06T15:46:07.043Z,16.10
2023-03-06T15:48:37.506Z,15.97
2023-03-06T15:51:04.937Z,14.00
2023-03-06T15:53:35.574Z,15.27
2023-03-06T15:56:02.341Z,15.60
2023-03-06T15:58:34.726Z,14.57
2023-03-06T16:01:04.929Z,15.33
2023-03-06T16:03:33.919Z,15.97
2023-03-06T16:06:08.986Z,16.40
2023-03-06T16:08:36.821Z,13.13
2023-03-06T16:11:03.482Z,14.00
2023-03-06T16:13:32.347Z,14.63
2023-03-06T16:15:59.380Z,15.20
2023-03-06T16:18:25.986Z,18.03
2023-03-06T16:20:56.706Z,19.20
2023-03-06T16:23:23.288Z,16.77
2023-03-06T16:25:50.181Z,15.03
2023-03-06T16:28:19.637Z,16.57
2023-03-06T16:30:46.449Z,13.67
2023-03-06T16:33:13.883Z,22.07
2023-03-06T16:35:41.348Z,21.70
2023-03-06T16:38:10.341Z,22.30
2023-03-06T16:40:41.043Z,22.80
2023-03-06T16:43:10.697Z,52.10
2023-03-06T16:45:41.835Z,17.20
2023-03-06T16:48:14.616Z,14.63
2023-03-06T16:50:42.253Z,14.50
2023-03-06T16:53:08.967Z,14.40
2023-03-06T16:55:54.804Z,14.50
2023-03-06T16:58:27.821Z,14.40
2023-03-06T17:00:54.620Z,13.00
2023-03-06T17:03:21.361Z,17.40
2023-03-06T17:05:48.130Z,19.20
2023-03-06T17:08:14.789Z,16.60
2023-03-06T17:10:42.044Z,17.70
2023-03-06T17:13:10.698Z,16.50
2023-03-06T17:15:40.111Z,16.27
2023-03-06T17:18:08.281Z,15.87
2023-03-06T17:20:40.724Z,14.57
2023-03-06T17:23:09.568Z,20.03
2023-03-06T17:25:38.979Z,18.67
2023-03-06T17:28:08.945Z,27.37
2023-03-06T17:30:35.586Z,29.27
2023-03-06T17:33:02.757Z,32.33
2023-03-06T17:35:38.131Z,26.63
2023-03-06T17:38:07.872Z,23.60
2023-03-06T17:40:35.059Z,22.97
2023-03-06T17:43:05.797Z,24.73
2023-03-06T17:45:36.755Z,18.50
2023-03-06T17:48:06.025Z,22.63
2023-03-06T17:50:34.984Z,27.57
2023-03-06T17:53:07.181Z,22.03
2023-03-06T17:55:36.701Z,20.53
2023-03-06T17:58:06.130Z,25.50
2023-03-06T18:00:36.001Z,25.43
2023-03-06T18:03:02.692Z,36.60
2023-03-06T18:05:33.995Z,30.63
2023-03-06T18:08:07.017Z,29.43
2023-03-06T18:10:43.524Z,26.93
2023-03-06T18:13:11.746Z,23.90
2023-03-06T18:15:46.708Z,23.40
2023-03-06T18:18:13.430Z,25.90
2023-03-06T18:20:44.715Z,25.23
2023-03-06T18:23:15.581Z,28.13
2023-03-06T18:25:50.259Z,24.97
2023-03-06T18:28:17.016Z,22.43
2023-03-06T18:30:48.684Z,15.70
2023-03-06T18:33:17.969Z,14.47
2023-03-06T18:35:44.762Z,18.47
2023-03-06T18:38:12.959Z,15.40
2023-03-06T18:40:41.876Z,14.17
2023-03-06T18:43:09.500Z,14.77
2023-03-06T18:45:40.851Z,19.53
2023-03-06T18:48:10.685Z,14.87
2023-03-06T18:50:37.722Z,17.57
2023-03-06T18:53:08.001Z,16.87
2023-03-06T18:55:40.026Z,18.00
2023-03-06T18:58:11.883Z,16.97
2023-03-06T19:00:40.138Z,18.80
2023-03-06T19:03:06.983Z,16.93
2023-03-06T19:05:33.789Z,20.30
2023-03-06T19:08:03.303Z,20.43
2023-03-06T19:10:31.773Z,21.47
2023-03-06T19:12:59.538Z,22.40
2023-03-06T19:15:27.346Z,49.17
2023-03-06T19:17:56.472Z,35.40
2023-03-06T19:20:28.485Z,28.77
2023-03-06T19:22:55.926Z,24.43
2023-03-06T19:25:25.110Z,30.40
2023-03-06T19:27:54.673Z,34.97
2023-03-06T19:30:25.541Z,31.50
2023-03-06T19:32:53.709Z,40.90
2023-03-06T19:35:24.063Z,47.87
2023-03-06T19:37:51.067Z,42.40
2023-03-06T19:40:18.059Z,38.83
2023-03-06T19:42:44.866Z,31.03
2023-03-06T19:45:12.957Z,22.17
2023-03-06T19:47:46.805Z,18.90
2023-03-06T19:50:16.617Z,15.70
2023-03-06T19:52:43.913Z,16.07
2023-03-06T19:55:11.390Z,17.27
2023-03-06T19:57:45.336Z,17.73
2023-03-06T20:00:12.729Z,16.87
2023-03-06T20:02:46.047Z,16.60
2023-03-06T20:05:15.419Z,16.23
2023-03-06T20:07:42.042Z,15.37
2023-03-06T20:10:13.740Z,15.17
2023-03-06T20:12:40.498Z,18.23
2023-03-06T20:15:09.499Z,16.53
2023-03-06T20:17:36.285Z,17.97
2023-03-06T20:20:05.745Z,17.87
2023-03-06T20:22:32.456Z,18.07
2023-03-06T20:25:03.674Z,17.23
2023-03-06T20:27:30.519Z,16.47
2023-03-06T20:30:03.353Z,17.50
2023-03-06T20:32:33.401Z,16.53
2023-03-06T20:35:04.776Z,17.67
2023-03-06T20:37:36.603Z,19.53
2023-03-06T20:40:07.302Z,17.50
2023-03-06T20:42:34.871Z,18.50
2023-03-06T20:45:04.599Z,18.23
2023-03-06T20:47:31.870Z,17.90
2023-03-06T20:50:00.200Z,18.20
2023-03-06T20:52:28.821Z,16.30
2023-03-06T20:54:58.521Z,17.03
2023-03-06T20:57:28.192Z,18.33
2023-03-06T20:59:54.876Z,17.07
2023-03-06T21:02:23.657Z,17.00
2023-03-06T21:04:50.428Z,18.73
2023-03-06T21:07:22.113Z,19.00
2023-03-06T21:09:50.773Z,18.30
2023-03-06T21:12:17.525Z,17.83
2023-03-06T21:14:49.687Z,19.40
2023-03-06T21:17:16.373Z,20.80
2023-03-06T21:19:42.998Z,15.97
2023-03-06T21:22:24.105Z,16.93
2023-03-06T21:24:50.817Z,19.03
2023-03-06T21:27:17.567Z,19.10
2023-03-06T21:29:50.220Z,20.57
2023-03-06T21:32:20.571Z,18.10
2023-03-06T21:34:48.211Z,17.87
2023-03-06T21:37:16.517Z,19.63
2023-03-06T21:39:48.326Z,18.67
2023-03-06T21:42:16.566Z,20.03
2023-03-06T21:44:44.388Z,20.87
2023-03-06T21:47:11.063Z,17.70
2023-03-06T21:49:42.080Z,20.90
2023-03-06T21:52:11.570Z,19.23
2023-03-06T21:54:40.309Z,19.30
2023-03-06T21:57:09.095Z,18.80
2023-03-06T21:59:38.363Z,18.73
2023-03-06T22:02:05.466Z,18.87
2023-03-06T22:04:32.224Z,19.17
2023-03-06T22:06:59.982Z,19.47
2023-03-06T22:09:32.485Z,19.70
2023-03-06T22:11:59.380Z,22.00
2023-03-06T22:14:27.375Z,19.33
2023-03-06T22:17:09.016Z,20.03
2023-03-06T22:19:40.601Z,18.90
2023-03-06T22:22:10.743Z,18.07
2023-03-06T22:24:37.487Z,19.10
2023-03-06T22:27:04.393Z,18.57
2023-03-06T22:29:32.518Z,19.67
2023-03-06T22:32:00.428Z,18.13
2023-03-06T22:34:27.817Z,22.43
2023-03-06T22:36:54.825Z,22.47
2023-03-06T22:39:22.369Z,19.27
2023-03-06T22:41:49.474Z,18.83
2023-03-06T22:44:20.945Z,17.30
2023-03-06T22:46:50.391Z,19.27
2023-03-06T22:49:18.851Z,19.60
2023-03-06T22:51:49.223Z,18.00
2023-03-06T22:54:19.131Z,19.23
2023-03-06T22:56:50.364Z,18.87
2023-03-06T22:59:18.468Z,18.43
2023-03-06T23:01:48.137Z,20.07
2023-03-06T23:04:20.348Z,20.87
2023-03-06T23:06:48.004Z,21.60
2023-03-06T23:09:20.629Z,18.93
2023-03-06T23:12:08.356Z,20.50
2023-03-06T23:14:55.265Z,18.07
2023-03-06T23:17:49.338Z,19.80
2023-03-06T23:20:36.681Z,19.70
2023-03-06T23:23:23.333Z,19.43
2023-03-06T23:25:52.985Z,17.67
2023-03-06T23:28:19.711Z,18.87
2023-03-06T23:30:48.853Z,19.00
2023-03-06T23:33:18.693Z,19.80
2023-03-06T23:35:47.359Z,20.83
2023-03-06T23:38:16.953Z,18.23
2023-03-06T23:40:46.163Z,21.23
2023-03-06T23:43:15.662Z,17.90
2023-03-06T23:45:53.807Z,19.07
2023-03-06T23:48:22.778Z,18.53
2023-03-06T23:50:50.801Z,18.17
2023-03-06T23:53:18.352Z,19.10
2023-03-06T23:55:46.751Z,19.50
2023-03-06T23:58:16.309Z,19.60
